• Join FlightAware (Why Join?)
  • Login
  • US Flag 
10:13AM EDT


 

Airport Tracker/Info


-or-


 

Live Flight TrackerFlight Track Log ✈ N377DP ✈ 15-Jul-2013 ✈ KHDN - KGJT

Flight Track Log - Related Links

Times and Time Zones

All times are in EDT time to prevent confusion due to time zone crossing. See the N377DP flight status page for this flight to view local times or setup timezone preferences in your user account.

Time Position Orientation Groundspeed Altitude Reporting Facility
EDT Latitude Longitude Course Direction KTS MPH feet Rate Location/Type
08:59PM 40.1421 -107.5505 213° Southwest  Level Estimated
08:59PM 40.2680 -107.3850 213° Southwest 384 442 15,700  Level FlightAware
08:59PM 40.2160 -107.4390 218° Southwest 402 463 16,000 180 Climbing FlightAware
09:00PM 40.1590 -107.5020 220° Southwest 399 459 16,000 60 Level FlightAware
09:01PM 40.1010 -107.5660 220° Southwest 398 458 16,100 60 Climbing FlightAware
09:02PM 40.0390 -107.6380 222° Southwest 400 460 16,100 -120 Level FlightAware
09:02PM 39.9780 -107.7070 221° Southwest 401 461 16,000  Descending FlightAware
09:03PM 39.9220 -107.7690 220° Southwest 401 461 16,100 -120 Climbing FlightAware
09:04PM 39.8620 -107.8360 221° Southwest 402 463 15,900 -720 Descending FlightAware
09:04PM 39.8110 -107.8910 220° Southwest 388 447 15,200 -1,080 Descending FlightAware
09:05PM 39.7580 -107.9510 221° Southwest 371 427 14,600 -720 Descending FlightAware
09:06PM 39.7010 -108.0100 219° Southwest 356 410 14,200 -480 Descending FlightAware
09:06PM 39.6550 -108.0430 209° Southwest 350 403 14,000 -120 Descending FlightAware
09:07PM 39.5920 -108.0850 207° Southwest 346 398 14,100  Climbing FlightAware
09:08PM 39.5320 -108.1250 207° Southwest 352 405 14,000 -120 Descending FlightAware
09:08PM 39.4810 -108.1590 207° Southwest 342 394 14,000 -840 Level FlightAware
09:09PM 39.4270 -108.1950 207° Southwest 343 395 13,000 -1,320 Descending FlightAware
09:10PM 39.3620 -108.2340 205° Southwest 332 382 12,200 -1,080 Descending FlightAware
09:10PM 39.3090 -108.2600 201° Southwest 304 350 11,500 -1,260 Descending FlightAware
09:11PM 39.2560 -108.2840 199° South 283 326 10,500 -1,680 Descending FlightAware
09:11PM 39.2190 -108.2990 197° South 276 318 9,600 -1,980 Descending FlightAware
09:12PM 39.1840 -108.3100 194° South 272 313 8,600 -1,620 Descending FlightAware
09:12PM 39.1510 -108.3190 192° South 251 289 8,100 -960 Descending FlightAware
09:13PM 39.1330 -108.3250 194° South 238 274 7,900 -540 Descending FlightAware
09:13PM 39.1150 -108.3370 207° Southwest 224 258 7,800 -360 Descending FlightAware
09:13PM 39.1040 -108.3530 228° Southwest 218 251 7,700 -420 Descending FlightAware
09:14PM 39.0950 -108.3880 252° West 223 257 7,500 -780 Descending FlightAware
09:14PM 39.0940 -108.4220 268° West 192 221 7,000 -1,200 Descending FlightAware
09:15PM 39.0950 -108.4510 273° West 169 194 6,400 -1,440 Descending FlightAware
09:15PM 39.1000 -108.4667 286° West 163 188 5,800 -720 Descending Denver TRACON
09:15PM 39.0990 -108.4880 278° West 166 191 5,900 -540 Climbing FlightAware
09:17PM 39.1260 -108.5280 311° West 37 43 -720 Descending FlightAware
09:17PM 39.1344 -108.5444 300° West 143 165 4,900 14,700 Climbing Denver Center
09:17PM 39.1280 -108.5330 297° West 37 43 -36,780 Descending FlightAware
09:17PM 39.1250 -108.5290 134° Southeast 30 35  Level FlightAware
09:18PM 39.1240 -108.5270 123° Southeast 16 18  Level FlightAware
09:18PM 39.1230 -108.5250 123° Southeast 20 23  Level FlightAware
09:19PM 39.1210 -108.5210 123° Southeast 18 21  Level FlightAware
09:19PM 39.1190 -108.5180 131° Southeast 17 20  Level FlightAware
09:22PM 39.1167 -108.5167 286° West  Level FlightAware Approximate
09:22PM 39.1170 -108.5240 300° West 26 30  Level FlightAware